createdAt,value
2018-03-08T00:00:43.938Z,86.39
2018-03-08T00:01:48.431Z,86.49
2018-03-08T00:02:53.946Z,85.68
2018-03-08T00:04:00.466Z,85.77
2018-03-08T00:05:04.963Z,86.30
2018-03-08T00:06:11.489Z,86.63
2018-03-08T00:07:15.980Z,86.53
2018-03-08T00:08:21.482Z,85.91
2018-03-08T00:09:27.995Z,85.96
2018-03-08T00:10:32.497Z,85.91
2018-03-08T00:11:39.034Z,86.11
2018-03-08T00:12:43.530Z,86.58
2018-03-08T00:13:49.030Z,85.72
2018-03-08T00:14:55.543Z,85.63
2018-03-08T00:16:00.054Z,85.72
2018-03-08T00:17:06.557Z,85.82
2018-03-08T00:18:11.055Z,85.44
2018-03-08T00:19:16.576Z,85.06
2018-03-08T00:20:23.101Z,85.63
2018-03-08T00:21:27.580Z,85.44
2018-03-08T00:22:34.116Z,84.68
2018-03-08T00:23:38.618Z,85.53
2018-03-08T00:24:44.118Z,85.35
2018-03-08T00:25:50.648Z,85.35
2018-03-08T00:26:55.150Z,85.44
2018-03-08T00:28:01.649Z,85.53
2018-03-08T00:29:06.148Z,85.63
2018-03-08T00:30:11.663Z,85.72
2018-03-08T00:31:18.198Z,85.44
2018-03-08T00:32:22.687Z,84.68
2018-03-08T00:33:29.213Z,84.97
2018-03-08T00:34:33.706Z,85.44
2018-03-08T00:35:39.220Z,85.53
2018-03-08T00:36:45.735Z,85.53
2018-03-08T00:37:50.296Z,85.63
2018-03-08T00:38:56.774Z,85.63
2018-03-08T00:40:01.242Z,85.44
2018-03-08T00:41:06.742Z,86.11
2018-03-08T00:42:13.260Z,85.72
2018-03-08T00:43:17.782Z,85.53
2018-03-08T00:44:24.291Z,85.44
2018-03-08T00:45:28.786Z,85.53
2018-03-08T00:46:34.292Z,85.72
2018-03-08T00:47:40.817Z,85.82
2018-03-08T00:48:45.308Z,85.35
2018-03-08T00:49:51.840Z,85.49
2018-03-08T00:50:56.339Z,85.35
2018-03-08T00:52:01.838Z,85.35
2018-03-08T00:53:08.374Z,85.77
2018-03-08T00:54:12.885Z,85.68
2018-03-08T00:55:19.375Z,85.77
2018-03-08T00:56:23.881Z,85.53
2018-03-08T00:57:29.387Z,85.72
2018-03-08T00:58:35.915Z,85.91
2018-03-08T00:59:40.399Z,85.39
2018-03-08T01:00:46.922Z,85.49
2018-03-08T01:01:51.422Z,86.01
2018-03-08T01:02:56.927Z,86.34
2018-03-08T01:04:03.455Z,85.53
2018-03-08T01:05:07.941Z,85.53
2018-03-08T01:06:14.482Z,85.77
2018-03-08T01:07:18.970Z,86.15
2018-03-08T01:08:24.467Z,85.96
2018-03-08T01:09:31.102Z,86.24
2018-03-08T01:10:35.512Z,86.15
2018-03-08T01:11:42.016Z,86.15
2018-03-08T01:12:46.521Z,86.63
2018-03-08T01:13:52.031Z,86.82
2018-03-08T01:14:58.589Z,86.53
2018-03-08T01:16:03.055Z,86.72
2018-03-08T01:17:09.554Z,86.82
2018-03-08T01:18:14.061Z,86.82
2018-03-08T01:19:19.580Z,86.82
2018-03-08T01:20:26.086Z,87.19
2018-03-08T01:21:30.670Z,87.19
2018-03-08T01:22:37.197Z,86.91
2018-03-08T01:23:41.723Z,87.19
2018-03-08T01:24:47.106Z,87.48
2018-03-08T01:25:53.651Z,87.29
2018-03-08T01:26:58.135Z,87.76
2018-03-08T01:28:04.667Z,87.19
2018-03-08T01:29:09.152Z,87.29
2018-03-08T01:30:14.678Z,87.38
2018-03-08T01:31:21.182Z,87.29
2018-03-08T01:32:25.676Z,87.38
2018-03-08T01:33:32.200Z,87.29
2018-03-08T01:34:36.702Z,87.48
2018-03-08T01:35:42.204Z,87.48
2018-03-08T01:36:48.734Z,87.29
2018-03-08T01:37:53.218Z,87.86
2018-03-08T01:38:59.738Z,87.29
2018-03-08T01:40:04.261Z,87.57
2018-03-08T01:41:09.748Z,87.38
2018-03-08T01:42:16.281Z,87.48
2018-03-08T01:43:20.762Z,87.95
2018-03-08T01:44:27.290Z,87.57
2018-03-08T01:45:31.793Z,87.48
2018-03-08T01:46:37.303Z,87.57
2018-03-08T01:47:43.816Z,87.38
2018-03-08T01:48:48.311Z,87.95
2018-03-08T01:49:54.827Z,87.67
2018-03-08T01:50:59.325Z,87.38
2018-03-08T01:52:04.842Z,87.48
2018-03-08T01:53:11.364Z,87.29
2018-03-08T01:54:15.880Z,87.29
2018-03-08T01:55:22.389Z,87.67
2018-03-08T01:56:26.882Z,87.38
2018-03-08T01:57:32.395Z,87.29
2018-03-08T01:58:38.915Z,87.29
2018-03-08T01:59:43.403Z,87.57
2018-03-08T02:00:49.925Z,87.19
2018-03-08T02:01:54.431Z,87.48
2018-03-08T02:02:59.935Z,87.38
2018-03-08T02:04:06.456Z,87.19
2018-03-08T02:05:10.947Z,87.48
2018-03-08T02:06:17.523Z,87.29
2018-03-08T02:07:22.050Z,87.10
2018-03-08T02:08:27.480Z,87.10
2018-03-08T02:09:34.001Z,87.48
2018-03-08T02:10:38.501Z,87.29
2018-03-08T02:11:45.017Z,87.38
2018-03-08T02:12:49.518Z,87.57
2018-03-08T02:13:55.021Z,87.57
2018-03-08T02:15:01.535Z,87.48
2018-03-08T02:16:06.054Z,87.38
2018-03-08T02:17:12.574Z,87.19
2018-03-08T02:18:17.071Z,87.19
2018-03-08T02:19:22.565Z,87.19
2018-03-08T02:20:29.092Z,87.19
2018-03-08T02:21:33.574Z,86.91
2018-03-08T02:22:40.195Z,86.91
2018-03-08T02:23:44.612Z,87.10
2018-03-08T02:24:50.132Z,87.10
2018-03-08T02:25:56.629Z,87.19
2018-03-08T02:27:01.136Z,87.01
2018-03-08T02:28:07.655Z,86.53
2018-03-08T02:29:12.154Z,86.82
2018-03-08T02:30:17.669Z,86.63
2018-03-08T02:31:24.205Z,86.24
2018-03-08T02:32:28.685Z,86.15
2018-03-08T02:33:35.198Z,85.49
2018-03-08T02:34:39.715Z,86.15
2018-03-08T02:35:45.217Z,86.43
2018-03-08T02:36:51.730Z,86.24
2018-03-08T02:37:56.237Z,86.24
2018-03-08T02:39:02.762Z,86.24
2018-03-08T02:40:07.241Z,86.53
2018-03-08T02:41:12.758Z,86.24
2018-03-08T02:42:19.296Z,85.86
2018-03-08T02:43:23.779Z,85.96
2018-03-08T02:44:30.297Z,86.15
2018-03-08T02:45:34.850Z,85.96
2018-03-08T02:46:40.302Z,85.77
2018-03-08T02:47:46.822Z,85.96
2018-03-08T02:48:51.320Z,85.96
2018-03-08T02:49:57.840Z,86.15
2018-03-08T02:51:02.341Z,85.96
2018-03-08T02:52:07.854Z,85.77
2018-03-08T02:53:14.361Z,85.77
2018-03-08T02:54:18.860Z,85.58
2018-03-08T02:55:25.451Z,85.39
2018-03-08T02:56:29.890Z,85.68
2018-03-08T02:57:35.392Z,85.77
2018-03-08T02:58:41.934Z,85.96
2018-03-08T02:59:46.413Z,85.77
2018-03-08T03:00:52.935Z,86.30
2018-03-08T03:01:57.436Z,86.49
2018-03-08T03:03:02.952Z,86.15
2018-03-08T03:04:09.450Z,86.15
2018-03-08T03:05:13.960Z,86.63
2018-03-08T03:06:20.477Z,85.63
2018-03-08T03:07:24.989Z,85.39
2018-03-08T03:08:30.484Z,84.97
2018-03-08T03:09:36.997Z,85.44
2018-03-08T03:10:41.501Z,85.63
2018-03-08T03:11:48.025Z,86.01
2018-03-08T03:12:52.520Z,85.25
2018-03-08T03:13:58.034Z,85.53
2018-03-08T03:15:04.552Z,85.63
2018-03-08T03:16:09.040Z,85.35
2018-03-08T03:17:15.570Z,85.72
2018-03-08T03:18:20.061Z,85.53
2018-03-08T03:19:25.572Z,85.82
2018-03-08T03:20:32.088Z,85.63
2018-03-08T03:21:36.595Z,85.44
2018-03-08T03:22:43.125Z,86.20
2018-03-08T03:23:47.614Z,85.82
2018-03-08T03:24:53.114Z,85.53
2018-03-08T03:25:59.680Z,85.72
2018-03-08T03:27:04.135Z,85.72
2018-03-08T03:28:10.653Z,85.39
2018-03-08T03:29:15.177Z,85.72
2018-03-08T03:30:20.661Z,85.49
2018-03-08T03:31:27.182Z,85.63
2018-03-08T03:32:31.684Z,85.16
2018-03-08T03:33:38.200Z,84.97
2018-03-08T03:34:42.692Z,85.06
2018-03-08T03:35:48.209Z,85.53
2018-03-08T03:36:54.737Z,85.53
2018-03-08T03:37:59.224Z,85.35
2018-03-08T03:39:05.751Z,85.25
2018-03-08T03:40:10.247Z,84.68
2018-03-08T03:41:15.747Z,85.35
2018-03-08T03:42:22.320Z,85.35
2018-03-08T03:43:26.766Z,85.63
2018-03-08T03:44:33.282Z,85.53
2018-03-08T03:45:37.812Z,86.11
2018-03-08T03:46:43.290Z,85.72
2018-03-08T03:47:49.821Z,85.63
2018-03-08T03:48:54.314Z,85.63
2018-03-08T03:50:00.847Z,85.53
2018-03-08T03:51:05.332Z,85.72
2018-03-08T03:52:10.851Z,85.63
2018-03-08T03:53:17.386Z,84.78
2018-03-08T03:54:21.862Z,84.40
2018-03-08T03:55:28.378Z,84.78
2018-03-08T03:56:32.879Z,84.97
2018-03-08T03:57:38.391Z,84.87
2018-03-08T03:58:44.908Z,84.68
2018-03-08T03:59:49.400Z,84.40
2018-03-08T04:00:55.927Z,84.78
2018-03-08T04:02:00.437Z,85.25
2018-03-08T04:03:05.925Z,85.16
2018-03-08T04:04:12.449Z,85.25
2018-03-08T04:05:16.945Z,84.40
2018-03-08T04:06:23.474Z,84.49
2018-03-08T04:07:27.975Z,84.49
2018-03-08T04:08:33.473Z,85.35
2018-03-08T04:09:39.997Z,84.68
2018-03-08T04:10:44.496Z,84.78
2018-03-08T04:11:51.016Z,84.78
2018-03-08T04:12:55.523Z,84.78
2018-03-08T04:14:01.025Z,84.59
2018-03-08T04:15:07.539Z,84.40
2018-03-08T04:16:12.078Z,84.11
2018-03-08T04:17:18.558Z,85.06
2018-03-08T04:18:23.054Z,85.06
2018-03-08T04:19:28.556Z,84.97
2018-03-08T04:20:35.088Z,84.49
2018-03-08T04:21:39.588Z,84.68
2018-03-08T04:22:46.111Z,84.30
2018-03-08T04:23:50.596Z,84.97
2018-03-08T04:24:56.120Z,84.97
2018-03-08T04:26:02.639Z,84.87
2018-03-08T04:27:07.132Z,84.97
2018-03-08T04:28:13.659Z,84.87
2018-03-08T04:29:18.148Z,84.40
2018-03-08T04:30:23.664Z,84.68
2018-03-08T04:31:30.174Z,84.40
2018-03-08T04:32:34.678Z,84.21
2018-03-08T04:33:41.196Z,84.59
2018-03-08T04:34:45.690Z,84.40
2018-03-08T04:35:51.211Z,84.11
2018-03-08T04:36:57.736Z,84.78
2018-03-08T04:38:02.217Z,84.01
2018-03-08T04:39:08.734Z,84.49
2018-03-08T04:40:13.235Z,84.40
2018-03-08T04:41:18.754Z,84.40
2018-03-08T04:42:25.262Z,84.40
2018-03-08T04:43:29.769Z,84.30
2018-03-08T04:44:36.288Z,84.30
2018-03-08T04:45:40.778Z,84.59
2018-03-08T04:46:46.284Z,84.59
2018-03-08T04:47:52.824Z,83.83
2018-03-08T04:48:57.329Z,84.21
2018-03-08T04:50:03.829Z,84.68
2018-03-08T04:51:08.324Z,83.92
2018-03-08T04:52:13.830Z,83.83
2018-03-08T04:53:20.349Z,84.01
2018-03-08T04:54:24.857Z,83.73
2018-03-08T04:55:31.381Z,83.73
2018-03-08T04:56:35.862Z,84.01
2018-03-08T04:57:41.380Z,84.21
2018-03-08T04:58:47.889Z,84.01
2018-03-08T04:59:52.404Z,83.69
2018-03-08T05:00:58.918Z,84.11
2018-03-08T05:02:03.410Z,84.17
2018-03-08T05:03:08.919Z,83.97
2018-03-08T05:04:15.438Z,83.69
2018-03-08T05:05:19.947Z,84.36
2018-03-08T05:06:26.453Z,84.45
2018-03-08T05:07:30.951Z,84.36
2018-03-08T05:08:36.463Z,83.69
2018-03-08T05:09:42.989Z,84.07
2018-03-08T05:10:47.481Z,84.07
2018-03-08T05:11:53.995Z,84.07
2018-03-08T05:12:58.522Z,83.78
2018-03-08T05:14:04.012Z,83.78
2018-03-08T05:15:10.495Z,84.17
2018-03-08T05:16:15.031Z,84.07
2018-03-08T05:17:21.543Z,84.07
2018-03-08T05:18:26.040Z,83.50
2018-03-08T05:19:31.557Z,84.83
2018-03-08T05:20:38.079Z,84.64
2018-03-08T05:21:42.559Z,84.55
2018-03-08T05:22:49.084Z,84.26
2018-03-08T05:23:53.590Z,84.26
2018-03-08T05:24:59.089Z,84.64
2018-03-08T05:26:05.633Z,84.26
2018-03-08T05:27:10.120Z,84.26
2018-03-08T05:28:16.630Z,84.45
2018-03-08T05:29:21.122Z,84.17
2018-03-08T05:30:26.627Z,84.36
2018-03-08T05:31:33.147Z,84.36
2018-03-08T05:32:37.654Z,84.12
2018-03-08T05:33:44.182Z,84.36
2018-03-08T05:34:48.671Z,84.31
2018-03-08T05:35:54.173Z,84.36
2018-03-08T05:37:00.705Z,84.69
2018-03-08T05:38:05.202Z,84.26
2018-03-08T05:39:11.721Z,84.78
2018-03-08T05:40:16.203Z,85.07
2018-03-08T05:41:21.754Z,84.88
2018-03-08T05:42:28.234Z,85.45
2018-03-08T05:43:32.727Z,84.22
2018-03-08T05:44:39.260Z,85.02
2018-03-08T05:45:43.746Z,85.36
2018-03-08T05:46:49.249Z,85.26
2018-03-08T05:47:55.774Z,84.88
2018-03-08T05:49:00.279Z,85.07
2018-03-08T05:50:06.800Z,84.69
2018-03-08T05:51:11.283Z,88.53
2018-03-08T05:52:16.802Z,91.94
2018-03-08T05:53:23.331Z,91.56
2018-03-08T05:54:27.834Z,90.05
2018-03-08T05:55:34.333Z,88.34
2018-03-08T05:56:38.834Z,87.39
2018-03-08T05:57:44.345Z,85.87
2018-03-08T05:58:50.862Z,84.83
2018-03-08T05:59:55.364Z,84.83
2018-03-08T06:01:01.892Z,84.26
2018-03-08T06:02:06.369Z,84.07
2018-03-08T06:03:11.884Z,84.26
2018-03-08T06:04:18.409Z,83.40
2018-03-08T06:05:22.917Z,84.17
2018-03-08T06:06:29.441Z,82.40
2018-03-08T06:07:33.920Z,81.79
2018-03-08T06:08:39.423Z,81.41
2018-03-08T06:09:45.983Z,81.41
2018-03-08T06:10:50.446Z,81.04
2018-03-08T06:11:56.954Z,81.13
2018-03-08T06:13:01.459Z,81.88
2018-03-08T06:14:07.011Z,81.79
2018-03-08T06:15:13.483Z,81.98
2018-03-08T06:16:17.990Z,82.55
2018-03-08T06:17:24.504Z,82.27
2018-03-08T06:18:28.990Z,82.42
2018-03-08T06:19:34.510Z,82.70
2018-03-08T06:20:41.033Z,82.89
2018-03-08T06:21:45.519Z,83.08
2018-03-08T06:22:52.040Z,82.70
2018-03-08T06:23:56.546Z,83.46
2018-03-08T06:25:02.043Z,83.46
2018-03-08T06:26:08.568Z,83.17
2018-03-08T06:27:13.060Z,83.46
2018-03-08T06:28:19.580Z,84.03
2018-03-08T06:29:24.080Z,83.74
2018-03-08T06:30:29.583Z,83.84
2018-03-08T06:31:36.103Z,83.65
2018-03-08T06:32:40.596Z,83.94
2018-03-08T06:33:47.120Z,84.41
2018-03-08T06:34:51.609Z,84.31
2018-03-08T06:35:57.131Z,84.31
2018-03-08T06:37:03.646Z,84.59
2018-03-08T06:38:08.144Z,84.12
2018-03-08T06:39:14.657Z,84.22
2018-03-08T06:40:19.172Z,84.12
2018-03-08T06:41:24.673Z,84.31
2018-03-08T06:42:31.180Z,84.88
2018-03-08T06:43:35.694Z,84.88
2018-03-08T06:44:42.212Z,84.31
2018-03-08T06:45:46.705Z,84.22
2018-03-08T06:46:52.208Z,84.41
2018-03-08T06:47:58.790Z,84.07
2018-03-08T06:49:03.257Z,84.07
2018-03-08T06:50:09.827Z,83.94
2018-03-08T06:51:14.236Z,83.59
2018-03-08T06:52:19.755Z,84.26
2018-03-08T06:53:26.270Z,84.36
2018-03-08T06:54:30.772Z,83.88
2018-03-08T06:55:37.287Z,83.69
2018-03-08T06:56:41.783Z,83.31
2018-03-08T06:57:47.291Z,83.40
2018-03-08T06:58:53.816Z,82.93
2018-03-08T06:59:58.305Z,83.40
2018-03-08T07:01:04.841Z,83.12
2018-03-08T07:02:09.319Z,83.31
2018-03-08T07:03:14.838Z,83.12
2018-03-08T07:04:21.341Z,84.07
2018-03-08T07:05:25.838Z,83.69
2018-03-08T07:06:32.361Z,83.22
2018-03-08T07:07:36.855Z,83.50
2018-03-08T07:08:42.366Z,82.55
2018-03-08T07:09:48.927Z,82.65
2018-03-08T07:10:53.382Z,82.55
2018-03-08T07:11:59.902Z,82.74
2018-03-08T07:13:04.402Z,82.84
2018-03-08T07:14:09.900Z,82.36
2018-03-08T07:15:16.423Z,82.27
2018-03-08T07:16:20.916Z,81.98
2018-03-08T07:17:27.439Z,80.94
2018-03-08T07:18:31.946Z,81.51
2018-03-08T07:19:37.444Z,81.07
2018-03-08T07:20:43.969Z,81.93
2018-03-08T07:21:48.468Z,81.55
2018-03-08T07:22:54.979Z,81.36
2018-03-08T07:23:59.486Z,80.98
2018-03-08T07:25:04.981Z,80.79
2018-03-08T07:26:11.511Z,79.94
2018-03-08T07:27:16.005Z,80.60
2018-03-08T07:28:22.552Z,80.69
2018-03-08T07:29:27.043Z,80.88
2018-03-08T07:30:32.530Z,80.13
2018-03-08T07:31:39.055Z,79.94
2018-03-08T07:32:43.600Z,80.32
2018-03-08T07:33:50.081Z,80.41
2018-03-08T07:34:54.568Z,80.22
2018-03-08T07:36:00.033Z,80.60
2018-03-08T07:37:06.582Z,80.60
2018-03-08T07:38:11.096Z,80.60
2018-03-08T07:39:17.622Z,80.69
2018-03-08T07:40:22.098Z,80.51
2018-03-08T07:41:27.615Z,80.69
2018-03-08T07:42:34.138Z,80.41
2018-03-08T07:43:38.632Z,80.41
2018-03-08T07:44:45.171Z,80.41
2018-03-08T07:45:49.638Z,79.94
2018-03-08T07:46:55.149Z,80.03
2018-03-08T07:48:01.677Z,80.22
2018-03-08T07:49:06.187Z,79.84
2018-03-08T07:50:12.693Z,79.74
2018-03-08T07:51:17.185Z,79.84
2018-03-08T07:52:22.705Z,79.36
2018-03-08T07:53:29.219Z,79.17
2018-03-08T07:54:33.711Z,79.27
2018-03-08T07:55:40.236Z,79.36
2018-03-08T07:56:44.730Z,79.74
2018-03-08T07:57:50.256Z,79.74
2018-03-08T07:58:56.779Z,79.74
2018-03-08T08:00:01.257Z,79.46
2018-03-08T08:01:07.854Z,78.64
2018-03-08T08:02:12.337Z,78.89
2018-03-08T08:03:17.789Z,78.23
2018-03-08T08:04:24.383Z,77.89
2018-03-08T08:05:28.834Z,78.74
2018-03-08T08:06:35.329Z,78.27
2018-03-08T08:07:39.822Z,77.70
2018-03-08T08:08:45.346Z,77.22
2018-03-08T08:09:51.839Z,77.89
2018-03-08T08:10:56.350Z,77.89
2018-03-08T08:12:02.861Z,77.89
2018-03-08T08:13:07.359Z,78.64
2018-03-08T08:14:12.893Z,78.27
2018-03-08T08:15:19.400Z,77.31
2018-03-08T08:16:23.887Z,77.22
2018-03-08T08:17:30.410Z,77.41
2018-03-08T08:18:34.919Z,77.79
2018-03-08T08:19:40.415Z,77.51
2018-03-08T08:20:46.947Z,77.79
2018-03-08T08:21:51.436Z,76.93
2018-03-08T08:22:57.951Z,77.03
2018-03-08T08:24:02.451Z,76.93
2018-03-08T08:25:07.958Z,77.22
2018-03-08T08:26:14.475Z,76.75
2018-03-08T08:27:18.999Z,76.08
2018-03-08T08:28:25.502Z,76.18
2018-03-08T08:29:29.997Z,78.97
2018-03-08T08:30:35.512Z,78.02
2018-03-08T08:31:42.022Z,74.69
2018-03-08T08:32:46.524Z,73.30
2018-03-08T08:33:53.049Z,71.78
2018-03-08T08:34:57.536Z,71.31
2018-03-08T08:36:03.053Z,70.54
2018-03-08T08:37:09.567Z,70.36
2018-03-08T08:38:14.061Z,70.97
2018-03-08T08:39:20.581Z,71.59
2018-03-08T08:40:25.095Z,71.69
2018-03-08T08:41:30.589Z,72.55
2018-03-08T08:42:37.119Z,72.16
2018-03-08T08:43:41.623Z,72.35
2018-03-08T08:44:48.274Z,72.74
2018-03-08T08:45:52.657Z,73.11
2018-03-08T08:46:58.144Z,73.49
2018-03-08T08:48:04.659Z,73.46
2018-03-08T08:49:09.172Z,73.49
2018-03-08T08:50:16.792Z,73.49
2018-03-08T08:51:20.589Z,74.12
2018-03-08T08:52:26.353Z,73.88
2018-03-08T08:53:32.231Z,73.30
2018-03-08T08:54:36.737Z,73.11
2018-03-08T08:55:43.232Z,72.74
2018-03-08T08:56:47.755Z,73.49
2018-03-08T08:57:53.242Z,73.21
2018-03-08T08:58:59.764Z,73.59
2018-03-08T09:00:04.249Z,73.49
2018-03-08T09:01:10.778Z,73.59
2018-03-08T09:02:15.279Z,73.49
2018-03-08T09:03:20.787Z,73.78
2018-03-08T09:04:27.323Z,73.30
2018-03-08T09:05:31.799Z,72.74
2018-03-08T09:06:38.326Z,72.26
2018-03-08T09:07:42.836Z,72.92
2018-03-08T09:08:48.328Z,72.35
2018-03-08T09:09:54.848Z,72.55
2018-03-08T09:10:59.344Z,72.45
2018-03-08T09:12:05.865Z,72.07
2018-03-08T09:13:10.364Z,72.77
2018-03-08T09:14:15.875Z,72.39
2018-03-08T09:15:22.406Z,71.72
2018-03-08T09:16:26.900Z,71.82
2018-03-08T09:17:33.425Z,71.82
2018-03-08T09:18:37.932Z,72.49
2018-03-08T09:19:43.423Z,72.39
2018-03-08T09:20:49.951Z,73.06
2018-03-08T09:21:54.457Z,72.49
2018-03-08T09:23:00.974Z,71.15
2018-03-08T09:24:05.486Z,71.72
2018-03-08T09:25:10.973Z,70.81
2018-03-08T09:26:17.505Z,70.62
2018-03-08T09:27:21.997Z,70.81
2018-03-08T09:28:28.525Z,70.43
2018-03-08T09:29:33.024Z,70.01
2018-03-08T09:30:38.527Z,70.62
2018-03-08T09:31:45.048Z,70.33
2018-03-08T09:32:49.553Z,69.76
2018-03-08T09:33:56.108Z,69.38
2018-03-08T09:35:00.583Z,69.10
2018-03-08T09:36:06.095Z,69.57
2018-03-08T09:37:12.619Z,69.48
2018-03-08T09:38:17.101Z,69.57
2018-03-08T09:39:23.622Z,69.19
2018-03-08T09:40:28.116Z,69.76
2018-03-08T09:41:33.629Z,69.38
2018-03-08T09:42:40.158Z,68.71
2018-03-08T09:43:44.679Z,68.43
2018-03-08T09:44:51.197Z,69.19
2018-03-08T09:45:55.671Z,69.29
2018-03-08T09:47:01.183Z,68.71
2018-03-08T09:48:07.708Z,69.48
2018-03-08T09:49:12.207Z,69.38
2018-03-08T09:50:18.735Z,69.29
2018-03-08T09:51:23.220Z,68.81
2018-03-08T09:52:28.748Z,68.52
2018-03-08T09:53:35.272Z,68.24
2018-03-08T09:54:39.761Z,68.81
2018-03-08T09:55:46.288Z,69.10
2018-03-08T09:56:50.788Z,69.38
2018-03-08T09:57:56.304Z,68.71
2018-03-08T09:59:02.849Z,69.00
2018-03-08T10:00:07.308Z,68.68
2018-03-08T10:01:13.845Z,69.48
2018-03-08T10:02:18.340Z,69.48
2018-03-08T10:03:23.840Z,69.29
2018-03-08T10:04:30.370Z,69.38
2018-03-08T10:05:34.860Z,69.67
2018-03-08T10:06:41.386Z,69.76
2018-03-08T10:07:45.889Z,69.67
2018-03-08T10:08:51.412Z,69.67
2018-03-08T10:09:57.919Z,69.76
2018-03-08T10:11:02.435Z,69.38
2018-03-08T10:12:08.929Z,69.38
2018-03-08T10:13:13.487Z,69.48
2018-03-08T10:14:18.945Z,69.10
2018-03-08T10:15:25.468Z,68.81
2018-03-08T10:16:29.973Z,69.10
2018-03-08T10:17:36.499Z,69.29
2018-03-08T10:18:41.002Z,69.38
2018-03-08T10:19:46.514Z,68.81
2018-03-08T10:20:53.024Z,69.19
2018-03-08T10:21:57.530Z,69.51
2018-03-08T10:23:04.045Z,69.04
2018-03-08T10:24:08.544Z,69.32
2018-03-08T10:25:14.052Z,68.75
2018-03-08T10:26:20.580Z,67.61
2018-03-08T10:27:25.086Z,67.80
2018-03-08T10:28:31.628Z,67.80
2018-03-08T10:29:36.101Z,67.51
2018-03-08T10:30:41.601Z,68.46
2018-03-08T10:31:48.143Z,67.80
2018-03-08T10:32:52.640Z,67.70
2018-03-08T10:33:59.149Z,67.41
2018-03-08T10:35:03.650Z,68.27
2018-03-08T10:36:09.163Z,67.13
2018-03-08T10:37:15.684Z,67.70
2018-03-08T10:38:20.192Z,69.79
2018-03-08T10:43:47.739Z,67.26
2018-03-08T10:44:54.270Z,67.45
2018-03-08T10:45:58.784Z,67.22
2018-03-08T10:47:04.271Z,67.70
2018-03-08T10:48:10.792Z,67.89
2018-03-08T10:49:15.292Z,67.80
2018-03-08T10:50:21.828Z,67.89
2018-03-08T10:51:26.317Z,68.75
2018-03-08T10:52:31.830Z,67.99
2018-03-08T10:53:38.347Z,67.61
2018-03-08T10:54:42.852Z,68.75
2018-03-08T10:55:49.372Z,67.70
2018-03-08T10:56:53.869Z,68.65
2018-03-08T10:57:59.388Z,69.32
2018-03-08T10:59:05.919Z,68.37
2018-03-08T11:00:10.423Z,68.27
2018-03-08T11:01:16.936Z,67.89
2018-03-08T11:02:21.432Z,68.46
2018-03-08T11:03:26.953Z,69.04
2018-03-08T11:04:33.469Z,69.00
2018-03-08T11:05:37.969Z,69.10
2018-03-08T11:06:44.502Z,69.29
2018-03-08T11:07:48.985Z,68.81
2018-03-08T11:08:54.493Z,68.81
2018-03-08T11:10:01.024Z,69.19
2018-03-08T11:11:05.522Z,68.81
2018-03-08T11:12:12.036Z,68.62
2018-03-08T11:13:16.545Z,69.00
2018-03-08T11:14:22.059Z,69.38
2018-03-08T11:15:28.594Z,69.19
2018-03-08T11:16:33.066Z,70.24
2018-03-08T11:17:39.609Z,69.19
2018-03-08T11:18:44.098Z,69.51
2018-03-08T11:19:49.618Z,68.75
2018-03-08T11:20:56.138Z,69.23
2018-03-08T11:22:00.638Z,68.94
2018-03-08T11:23:07.169Z,69.13
2018-03-08T11:24:11.646Z,68.65
2018-03-08T11:25:17.232Z,68.75
2018-03-08T11:26:23.680Z,68.08
2018-03-08T11:27:28.202Z,68.37
2018-03-08T11:28:34.730Z,67.74
2018-03-08T11:29:39.217Z,67.45
2018-03-08T11:30:44.732Z,67.26
2018-03-08T11:31:51.242Z,66.59
2018-03-08T11:32:55.725Z,65.73
2018-03-08T11:34:02.262Z,66.21
2018-03-08T11:35:07.026Z,66.21
2018-03-08T11:36:12.269Z,65.73
2018-03-08T11:37:18.802Z,66.21
2018-03-08T11:38:23.286Z,65.45
2018-03-08T11:39:29.807Z,66.27
2018-03-08T11:40:34.322Z,65.92
2018-03-08T11:41:39.835Z,66.11
2018-03-08T11:42:46.467Z,66.21
2018-03-08T11:43:50.845Z,65.51
2018-03-08T11:44:58.519Z,66.21
2018-03-08T11:46:01.880Z,65.99
2018-03-08T11:47:07.379Z,65.80
2018-03-08T11:48:13.904Z,65.80
2018-03-08T11:49:18.409Z,65.70
2018-03-08T11:50:24.938Z,66.46
2018-03-08T11:51:29.433Z,66.50
2018-03-08T11:52:34.954Z,66.88
2018-03-08T11:53:41.475Z,66.50
2018-03-08T11:54:46.024Z,67.35
2018-03-08T11:55:52.471Z,66.59
2018-03-08T11:56:56.984Z,66.02
2018-03-08T11:58:02.488Z,65.45
2018-03-08T11:59:09.024Z,65.83
2018-03-08T12:00:13.552Z,65.83
2018-03-08T12:01:20.051Z,65.07
2018-03-08T12:02:24.560Z,65.36
2018-03-08T12:03:30.048Z,65.36
2018-03-08T12:04:36.626Z,64.87
2018-03-08T12:05:41.084Z,65.26
2018-03-08T12:06:47.592Z,64.97
2018-03-08T12:07:52.119Z,65.26
2018-03-08T12:08:57.615Z,65.26
2018-03-08T12:10:04.207Z,65.26
2018-03-08T12:11:08.658Z,65.26
2018-03-08T12:12:15.154Z,65.45
2018-03-08T12:13:19.656Z,64.97
2018-03-08T12:14:25.189Z,64.40
2018-03-08T12:15:31.691Z,64.40
2018-03-08T12:16:36.176Z,64.02
2018-03-08T12:17:42.698Z,64.40
2018-03-08T12:18:47.207Z,64.21
2018-03-08T12:19:52.722Z,64.02
2018-03-08T12:20:59.248Z,64.21
2018-03-08T12:22:03.741Z,64.02
2018-03-08T12:23:10.288Z,64.21
2018-03-08T12:24:14.768Z,64.56
2018-03-08T12:25:20.272Z,64.56
2018-03-08T12:26:26.794Z,64.47
2018-03-08T12:27:31.311Z,65.13
2018-03-08T12:28:37.830Z,65.03
2018-03-08T12:29:42.312Z,65.32
2018-03-08T12:30:50.405Z,65.45
2018-03-08T12:31:54.374Z,65.07
2018-03-08T12:32:58.869Z,65.26
2018-03-08T12:34:05.404Z,65.36
2018-03-08T12:35:09.903Z,65.07
2018-03-08T12:36:15.378Z,64.59
2018-03-08T12:37:21.936Z,65.26
2018-03-08T12:38:26.401Z,64.40
2018-03-08T12:39:32.950Z,64.02
2018-03-08T12:40:37.425Z,63.73
2018-03-08T12:41:42.937Z,63.83
2018-03-08T12:42:49.465Z,64.40
2018-03-08T12:43:53.966Z,64.40
2018-03-08T12:45:00.490Z,64.31
2018-03-08T12:46:04.977Z,64.02
2018-03-08T12:47:10.504Z,65.32
2018-03-08T12:48:17.048Z,65.61
2018-03-08T12:49:21.534Z,65.99
2018-03-08T12:50:28.055Z,66.37
2018-03-08T12:51:32.548Z,67.22
2018-03-08T12:52:38.050Z,67.41
2018-03-08T12:53:44.579Z,68.59
2018-03-08T12:54:49.073Z,69.23
2018-03-08T12:55:55.604Z,69.64
2018-03-08T12:57:00.101Z,70.08
2018-03-08T12:58:05.631Z,69.32
2018-03-08T12:59:12.131Z,69.79
2018-03-08T13:00:16.628Z,69.70
2018-03-08T13:01:23.156Z,69.89
2018-03-08T13:02:27.673Z,70.56
2018-03-08T13:03:33.163Z,71.13
2018-03-08T13:04:39.695Z,71.13
2018-03-08T13:05:44.192Z,71.80
2018-03-08T13:06:50.734Z,71.70
2018-03-08T13:07:55.210Z,71.28
2018-03-08T13:09:00.745Z,72.24
2018-03-08T13:10:07.255Z,72.56
2018-03-08T13:11:11.738Z,73.00
2018-03-08T13:12:18.272Z,73.00
2018-03-08T13:13:22.771Z,74.24
2018-03-08T13:14:28.286Z,75.67
2018-03-08T13:15:34.811Z,74.62
2018-03-08T13:16:39.299Z,74.94
2018-03-08T13:17:45.839Z,75.47
2018-03-08T13:18:50.328Z,74.43
2018-03-08T13:19:55.828Z,74.52
2018-03-08T13:21:02.367Z,75.28
2018-03-08T13:22:06.905Z,75.38
2018-03-08T13:23:13.381Z,75.76
2018-03-08T13:24:17.955Z,75.19
2018-03-08T13:25:23.426Z,75.28
2018-03-08T13:26:29.921Z,76.33
2018-03-08T13:27:34.439Z,75.85
2018-03-08T13:28:40.938Z,76.33
2018-03-08T13:29:45.449Z,76.33
2018-03-08T13:30:50.929Z,77.00
2018-03-08T13:31:57.467Z,77.28
2018-03-08T13:33:01.956Z,77.37
2018-03-08T13:34:08.502Z,78.14
2018-03-08T13:35:12.992Z,77.95
2018-03-08T13:36:18.494Z,77.85
2018-03-08T13:37:25.045Z,77.76
2018-03-08T13:38:29.520Z,78.04
2018-03-08T13:39:36.040Z,78.90
2018-03-08T13:40:40.540Z,78.86
2018-03-08T13:41:46.040Z,78.99
2018-03-08T13:42:52.567Z,79.72
2018-03-08T13:43:57.072Z,79.57
2018-03-08T13:45:03.592Z,79.47
2018-03-08T13:46:08.113Z,79.66
2018-03-08T13:47:13.593Z,79.66
2018-03-08T13:48:20.122Z,79.72
2018-03-08T13:49:24.629Z,80.19
2018-03-08T13:50:31.148Z,80.19
2018-03-08T13:51:35.662Z,80.47
2018-03-08T13:52:41.145Z,80.52
2018-03-08T13:53:47.668Z,80.47
2018-03-08T13:54:52.181Z,80.47
2018-03-08T13:55:58.691Z,80.76
2018-03-08T13:57:03.217Z,81.47
2018-03-08T13:58:08.706Z,81.05
2018-03-08T13:59:15.245Z,80.57
2018-03-08T14:00:19.757Z,80.95
2018-03-08T14:01:26.326Z,81.43
2018-03-08T14:02:30.805Z,81.24
2018-03-08T14:03:36.396Z,81.52
2018-03-08T14:04:42.774Z,81.52
2018-03-08T14:05:47.267Z,81.52
2018-03-08T14:06:53.805Z,82.19
2018-03-08T14:07:58.343Z,81.90